createdAt,value
2022-11-17T00:03:54.157Z,52.90
2022-11-17T00:06:22.519Z,55.10
2022-11-17T00:08:53.206Z,49.50
2022-11-17T00:11:21.543Z,43.90
2022-11-17T00:14:08.341Z,49.30
2022-11-17T00:16:36.699Z,49.70
2022-11-17T00:19:23.400Z,49.40
2022-11-17T00:21:53.235Z,51.70
2022-11-17T00:24:23.564Z,56.60
2022-11-17T00:27:04.243Z,54.30
2022-11-17T00:29:35.295Z,50.50
2022-11-17T00:32:31.519Z,47.30
2022-11-17T00:35:00.191Z,52.60
2022-11-17T00:37:33.376Z,49.50
2022-11-17T00:40:01.985Z,55.70
2022-11-17T00:42:30.392Z,58.20
2022-11-17T00:44:58.733Z,51.10
2022-11-17T00:47:27.057Z,51.10
2022-11-17T00:49:55.362Z,51.00
2022-11-17T00:52:23.765Z,53.90
2022-11-17T00:54:52.247Z,53.20
2022-11-17T00:57:20.624Z,48.40
2022-11-17T00:59:49.914Z,49.30
2022-11-17T01:02:18.404Z,51.90
2022-11-17T01:04:46.873Z,51.70
2022-11-17T01:07:15.310Z,59.40
2022-11-17T01:09:43.792Z,57.70
2022-11-17T01:12:12.123Z,46.60
2022-11-17T01:14:40.481Z,53.20
2022-11-17T01:17:08.892Z,48.00
2022-11-17T01:19:37.468Z,50.60
2022-11-17T01:22:07.054Z,47.70
2022-11-17T01:24:35.450Z,43.30
2022-11-17T01:27:04.016Z,47.80
2022-11-17T01:29:32.615Z,48.80
2022-11-17T01:32:01.198Z,56.70
2022-11-17T01:34:29.836Z,50.30
2022-11-17T01:37:16.940Z,50.80
2022-11-17T01:39:45.872Z,49.60
2022-11-17T01:42:24.537Z,49.60
2022-11-17T01:44:59.665Z,54.40
2022-11-17T01:47:43.468Z,55.90
2022-11-17T01:50:31.015Z,62.30
2022-11-17T01:53:05.007Z,52.50
2022-11-17T01:56:05.830Z,59.20
2022-11-17T01:58:39.041Z,58.60
2022-11-17T02:01:07.687Z,55.80
2022-11-17T02:03:37.393Z,66.30
2022-11-17T02:08:40.336Z,60.30
2022-11-17T02:11:20.997Z,61.40
2022-11-17T02:13:53.394Z,58.50
2022-11-17T02:16:22.075Z,58.40
2022-11-17T02:18:50.556Z,60.90
2022-11-17T02:21:30.796Z,60.00
2022-11-17T02:24:41.277Z,68.30
2022-11-17T02:27:43.657Z,58.60
2022-11-17T02:30:19.469Z,62.00
2022-11-17T02:33:05.599Z,66.10
2022-11-17T02:35:52.511Z,56.60
2022-11-17T02:38:52.002Z,58.30
2022-11-17T02:41:31.044Z,54.00
2022-11-17T02:44:16.939Z,54.70
2022-11-17T02:46:49.513Z,51.40
2022-11-17T02:49:33.251Z,56.50
2022-11-17T02:52:03.110Z,58.10
2022-11-17T02:54:33.287Z,50.30
2022-11-17T02:57:01.852Z,53.70
2022-11-17T02:59:35.673Z,46.90
2022-11-17T03:02:37.007Z,41.80
2022-11-17T03:05:08.052Z,43.90
2022-11-17T03:08:11.773Z,47.90
2022-11-17T03:10:46.090Z,42.60
2022-11-17T03:13:30.340Z,43.40
2022-11-17T03:16:34.510Z,46.40
2022-11-17T03:19:08.604Z,36.80
2022-11-17T03:22:13.088Z,37.60
2022-11-17T03:24:48.736Z,41.40
2022-11-17T03:27:31.645Z,36.80
2022-11-17T03:30:06.582Z,35.80
2022-11-17T03:32:41.733Z,40.90
2022-11-17T03:35:20.003Z,39.90
2022-11-17T03:37:55.776Z,36.50
2022-11-17T03:40:29.730Z,44.50
2022-11-17T03:43:04.379Z,35.50
2022-11-17T03:45:37.973Z,37.20
2022-11-17T03:48:33.899Z,45.60
2022-11-17T03:51:12.042Z,36.50
2022-11-17T03:53:41.983Z,36.00
2022-11-17T03:56:41.483Z,37.40
2022-11-17T03:59:15.787Z,32.10
2022-11-17T04:01:44.308Z,35.20
2022-11-17T04:04:22.569Z,40.00
2022-11-17T04:06:55.525Z,36.10
2022-11-17T04:09:24.763Z,35.70
2022-11-17T04:12:12.143Z,38.20
2022-11-17T04:14:59.270Z,38.60
2022-11-17T04:17:27.664Z,32.00
2022-11-17T04:19:56.176Z,33.40
2022-11-17T04:22:24.509Z,30.30
2022-11-17T04:24:52.918Z,32.00
2022-11-17T04:27:40.090Z,32.10
2022-11-17T04:30:09.771Z,27.90
2022-11-17T04:35:07.726Z,29.10
2022-11-17T04:37:36.106Z,34.40
2022-11-17T04:40:05.923Z,32.20
2022-11-17T04:45:02.594Z,31.40
2022-11-17T04:47:30.908Z,33.60
2022-11-17T04:49:59.448Z,34.10
2022-11-17T04:52:29.903Z,35.90
2022-11-17T04:54:58.561Z,36.40
2022-11-17T04:57:26.945Z,41.70
2022-11-17T04:59:55.269Z,35.20
2022-11-17T05:02:23.766Z,38.00
2022-11-17T05:04:58.318Z,35.90
2022-11-17T05:07:28.009Z,38.40
2022-11-17T05:12:54.211Z,37.20
2022-11-17T05:15:42.479Z,38.00
2022-11-17T05:18:10.803Z,45.50
2022-11-17T05:20:39.107Z,42.90
2022-11-17T05:23:25.852Z,38.00
2022-11-17T05:25:54.271Z,31.70
2022-11-17T05:28:22.767Z,35.40
2022-11-17T05:30:51.117Z,33.40
2022-11-17T05:33:19.365Z,35.30
2022-11-17T05:35:47.788Z,29.60
2022-11-17T05:38:16.304Z,30.20
2022-11-17T05:40:44.670Z,31.70
2022-11-17T05:43:13.000Z,33.10
2022-11-17T05:45:41.420Z,29.70
2022-11-17T05:48:09.810Z,29.10
2022-11-17T05:50:38.273Z,30.50
2022-11-17T05:53:06.820Z,27.90
2022-11-17T05:55:35.454Z,27.10
2022-11-17T05:58:21.416Z,26.70
2022-11-17T06:00:51.949Z,36.30
2022-11-17T06:03:36.583Z,28.00
2022-11-17T06:06:05.553Z,28.30
2022-11-17T06:08:37.953Z,27.10
2022-11-17T06:11:06.797Z,25.90
2022-11-17T06:13:35.298Z,26.80
2022-11-17T06:16:08.293Z,27.20
2022-11-17T06:18:45.718Z,26.50
2022-11-17T06:21:16.725Z,30.70
2022-11-17T06:23:47.026Z,30.50
2022-11-17T06:26:16.120Z,30.50
2022-11-17T06:28:47.442Z,26.00
2022-11-17T06:31:17.217Z,22.30
2022-11-17T06:33:46.509Z,23.00
2022-11-17T06:36:14.955Z,25.10
2022-11-17T06:38:43.894Z,26.40
2022-11-17T06:41:14.500Z,24.80
2022-11-17T06:43:50.590Z,31.00
2022-11-17T06:46:19.441Z,27.30
2022-11-17T06:48:59.431Z,27.60
2022-11-17T06:51:27.844Z,33.30
2022-11-17T06:53:56.321Z,28.80
2022-11-17T06:56:25.334Z,27.30
2022-11-17T06:58:54.719Z,28.40
2022-11-17T07:01:23.408Z,26.70
2022-11-17T07:03:52.202Z,26.40
2022-11-17T07:06:20.722Z,27.70
2022-11-17T07:08:51.008Z,24.30
2022-11-17T07:11:19.698Z,26.00
2022-11-17T07:13:48.989Z,25.80
2022-11-17T07:16:23.448Z,23.90
2022-11-17T07:18:53.416Z,23.90
2022-11-17T07:21:22.712Z,22.70
2022-11-17T07:23:52.130Z,24.70
2022-11-17T07:26:20.738Z,26.40
2022-11-17T07:28:49.463Z,20.80
2022-11-17T07:31:18.124Z,27.70
2022-11-17T07:33:46.573Z,24.40
2022-11-17T07:36:15.570Z,25.40
2022-11-17T07:38:43.985Z,23.00
2022-11-17T07:41:14.701Z,23.00
2022-11-17T07:43:43.227Z,23.20
2022-11-17T07:46:14.589Z,25.00
2022-11-17T07:48:44.502Z,23.70
2022-11-17T07:51:14.308Z,24.00
2022-11-17T07:53:42.898Z,28.10
2022-11-17T07:56:12.139Z,27.40
2022-11-17T07:58:41.442Z,24.80
2022-11-17T08:01:18.277Z,25.80
2022-11-17T08:03:46.938Z,25.10
2022-11-17T08:06:27.786Z,24.80
2022-11-17T08:08:56.666Z,23.50
2022-11-17T08:11:40.248Z,27.90
2022-11-17T08:14:08.934Z,28.80
2022-11-17T08:16:37.403Z,26.80
2022-11-17T08:19:06.475Z,25.50
2022-11-17T08:21:37.066Z,25.10
2022-11-17T08:24:06.165Z,23.50
2022-11-17T08:26:34.629Z,27.20
2022-11-17T08:29:03.318Z,25.70
2022-11-17T08:31:32.018Z,25.50
2022-11-17T08:34:00.437Z,24.00
2022-11-17T08:36:29.003Z,28.90
2022-11-17T08:38:57.626Z,24.90
2022-11-17T08:41:26.811Z,21.70
2022-11-17T08:43:55.311Z,21.90
2022-11-17T08:46:24.549Z,19.70
2022-11-17T08:48:56.883Z,22.40
2022-11-17T08:51:25.765Z,22.00
2022-11-17T08:53:56.020Z,19.00
2022-11-17T08:56:24.458Z,25.10
2022-11-17T08:58:52.888Z,19.20
2022-11-17T09:01:22.060Z,20.30
2022-11-17T09:03:50.765Z,18.70
2022-11-17T09:06:20.344Z,17.90
2022-11-17T09:08:55.537Z,19.00
2022-11-17T09:11:24.157Z,20.40
2022-11-17T09:13:52.954Z,16.90
2022-11-17T09:16:24.169Z,18.50
2022-11-17T09:18:59.926Z,20.20
2022-11-17T09:21:30.551Z,17.20
2022-11-17T09:23:59.073Z,17.20
2022-11-17T09:26:28.873Z,17.70
2022-11-17T09:29:03.229Z,17.30
2022-11-17T09:31:32.019Z,17.40
2022-11-17T09:34:04.825Z,17.20
2022-11-17T09:36:34.217Z,17.40
2022-11-17T09:39:02.898Z,16.90
2022-11-17T09:41:46.316Z,16.70
2022-11-17T09:44:31.829Z,18.30
2022-11-17T09:47:34.237Z,17.70
2022-11-17T09:50:25.906Z,17.50
2022-11-17T09:53:01.706Z,17.60
2022-11-17T09:55:34.155Z,18.20
2022-11-17T09:58:12.379Z,15.70
2022-11-17T10:00:43.958Z,16.20
2022-11-17T10:03:20.695Z,15.60
2022-11-17T10:06:26.127Z,15.50
2022-11-17T10:09:44.557Z,15.10
2022-11-17T10:12:21.251Z,15.10
2022-11-17T10:14:51.279Z,14.10
2022-11-17T10:17:23.818Z,15.60
2022-11-17T10:19:52.300Z,15.70
2022-11-17T10:22:40.404Z,15.50
2022-11-17T10:26:07.747Z,15.40
2022-11-17T10:28:37.332Z,14.70
2022-11-17T10:31:20.317Z,15.90
2022-11-17T10:33:51.067Z,15.00
2022-11-17T10:36:27.790Z,13.90
2022-11-17T10:39:04.952Z,13.70
2022-11-17T10:41:42.974Z,15.30
2022-11-17T10:44:27.562Z,16.60
2022-11-17T10:47:02.388Z,14.40
2022-11-17T10:49:40.015Z,14.40
2022-11-17T10:52:11.689Z,15.90
2022-11-17T10:54:40.210Z,15.90
2022-11-17T10:57:22.580Z,13.60
2022-11-17T10:59:59.928Z,13.30
2022-11-17T11:03:19.331Z,16.30
2022-11-17T11:06:30.606Z,15.60
2022-11-17T11:09:05.575Z,14.20
2022-11-17T11:11:49.420Z,19.70
2022-11-17T11:14:31.616Z,16.10
2022-11-17T11:17:01.493Z,15.60
2022-11-17T11:19:31.110Z,17.60
2022-11-17T11:25:58.944Z,16.90
2022-11-17T11:29:04.260Z,16.70
2022-11-17T11:31:39.170Z,15.40
2022-11-17T11:34:40.921Z,15.90
2022-11-17T11:37:15.877Z,16.70
2022-11-17T11:40:28.380Z,16.20
2022-11-17T11:43:50.400Z,15.50
2022-11-17T11:47:14.392Z,15.00
2022-11-17T11:50:29.718Z,13.30
2022-11-17T11:53:17.204Z,17.70
2022-11-17T11:55:51.475Z,15.10
2022-11-17T11:58:25.227Z,16.50
2022-11-17T12:01:04.951Z,13.50
2022-11-17T12:03:56.447Z,14.70
2022-11-17T12:06:54.234Z,14.40
2022-11-17T12:09:50.568Z,15.60
2022-11-17T12:12:47.623Z,14.30
2022-11-17T12:15:40.977Z,15.30
2022-11-17T12:18:45.534Z,11.00
2022-11-17T12:21:23.629Z,11.40
2022-11-17T12:23:58.257Z,11.70
2022-11-17T12:26:33.563Z,13.10
2022-11-17T12:29:27.211Z,8.60
2022-11-17T12:32:02.606Z,9.80
2022-11-17T12:34:37.684Z,7.50
2022-11-17T12:37:15.480Z,8.40
2022-11-17T12:40:45.763Z,7.90
2022-11-17T12:43:18.099Z,7.30
2022-11-17T12:45:58.555Z,7.80
2022-11-17T12:48:35.299Z,6.50
2022-11-17T12:51:23.396Z,5.80
2022-11-17T12:53:56.365Z,5.80
2022-11-17T12:56:33.140Z,6.90
2022-11-17T12:59:19.955Z,6.80
2022-11-17T13:02:19.683Z,5.40
2022-11-17T13:05:16.297Z,6.70
2022-11-17T13:07:44.819Z,6.20
2022-11-17T13:10:31.162Z,6.10
2022-11-17T13:13:23.835Z,6.40
2022-11-17T13:15:56.458Z,4.50
2022-11-17T13:18:39.689Z,4.30
2022-11-17T13:21:26.729Z,5.80
2022-11-17T13:23:56.523Z,4.70
2022-11-17T13:26:38.535Z,4.60
2022-11-17T13:29:12.820Z,4.70
2022-11-17T13:31:41.614Z,5.20
2022-11-17T13:34:13.131Z,6.80
2022-11-17T13:37:01.367Z,5.30
2022-11-17T13:39:29.874Z,5.50
2022-11-17T13:42:01.735Z,6.90
2022-11-17T13:44:32.474Z,5.70
2022-11-17T13:47:21.120Z,5.90
2022-11-17T13:49:50.045Z,6.10
2022-11-17T13:52:47.018Z,5.90
2022-11-17T13:55:21.877Z,5.50
2022-11-17T13:58:26.193Z,7.40
2022-11-17T14:00:58.393Z,5.90
2022-11-17T14:03:39.891Z,5.20
2022-11-17T14:06:12.149Z,5.90
2022-11-17T14:09:02.348Z,6.20
2022-11-17T14:11:30.915Z,5.40
2022-11-17T14:14:01.533Z,6.00
2022-11-17T14:16:45.419Z,6.40
2022-11-17T14:19:16.773Z,5.40
2022-11-17T14:22:02.298Z,6.80
2022-11-17T14:24:33.166Z,5.70
2022-11-17T14:27:02.470Z,5.90
2022-11-17T14:29:30.991Z,7.00
2022-11-17T14:31:59.398Z,7.90
2022-11-17T14:34:29.789Z,6.80
2022-11-17T14:39:43.276Z,6.70
2022-11-17T14:42:11.723Z,8.00
2022-11-17T14:44:40.182Z,6.70
2022-11-17T14:47:08.707Z,6.20
2022-11-17T14:49:37.777Z,6.30
2022-11-17T14:52:06.240Z,5.70
2022-11-17T14:54:34.664Z,5.70
2022-11-17T14:57:03.142Z,4.40
2022-11-17T14:59:31.623Z,4.40
2022-11-17T15:02:00.102Z,4.30
2022-11-17T15:04:49.342Z,5.20
2022-11-17T15:07:17.464Z,6.10
2022-11-17T15:09:46.025Z,5.70
2022-11-17T15:12:14.483Z,8.70
2022-11-17T15:14:43.581Z,7.30
2022-11-17T15:17:14.291Z,6.30
2022-11-17T15:19:45.357Z,4.70
2022-11-17T15:22:13.769Z,5.20
2022-11-17T15:24:45.012Z,5.30
2022-11-17T15:27:17.694Z,4.60
2022-11-17T15:29:46.117Z,4.90
2022-11-17T15:32:14.521Z,5.40
2022-11-17T15:34:42.981Z,5.20
2022-11-17T15:37:11.453Z,6.50
2022-11-17T15:39:39.933Z,5.60
2022-11-17T15:42:08.621Z,5.20
2022-11-17T15:44:37.149Z,4.30
2022-11-17T15:47:06.375Z,3.50
2022-11-17T15:49:35.006Z,4.20
2022-11-17T15:52:03.546Z,4.00
2022-11-17T15:54:32.234Z,4.40
2022-11-17T15:57:01.737Z,3.90
2022-11-17T16:01:58.788Z,4.60
2022-11-17T16:04:27.390Z,4.30
2022-11-17T16:06:56.905Z,3.80
2022-11-17T16:09:25.524Z,4.60
2022-11-17T16:11:54.079Z,5.10
2022-11-17T16:14:22.826Z,4.80
2022-11-17T16:16:51.362Z,3.80
2022-11-17T16:19:19.774Z,4.40
2022-11-17T16:21:48.275Z,4.10
2022-11-17T16:24:16.810Z,4.20
2022-11-17T16:26:46.029Z,5.20
2022-11-17T16:29:14.620Z,5.30
2022-11-17T16:31:43.446Z,4.80
2022-11-17T16:34:15.767Z,4.00
2022-11-17T16:36:45.469Z,4.30
2022-11-17T16:39:20.111Z,5.50
2022-11-17T16:41:51.472Z,4.70
2022-11-17T16:44:20.527Z,4.00
2022-11-17T16:46:50.114Z,4.10
2022-11-17T16:51:51.060Z,3.90
2022-11-17T16:54:20.850Z,4.00
2022-11-17T16:56:49.861Z,4.40
2022-11-17T16:59:18.576Z,4.70
2022-11-17T17:01:47.860Z,4.10
2022-11-17T17:04:16.506Z,4.70
2022-11-17T17:06:46.198Z,5.20
2022-11-17T17:09:15.578Z,4.80
2022-11-17T17:14:15.257Z,4.00
2022-11-17T17:16:44.513Z,4.50
2022-11-17T17:19:15.620Z,4.80
2022-11-17T17:21:44.550Z,4.80
2022-11-17T17:24:13.206Z,5.30
2022-11-17T17:26:42.081Z,5.10
2022-11-17T17:29:11.875Z,5.70
2022-11-17T17:31:42.573Z,5.20
2022-11-17T17:34:13.040Z,6.50
2022-11-17T17:36:41.575Z,4.90
2022-11-17T17:39:14.320Z,4.60
2022-11-17T17:41:44.721Z,5.80
2022-11-17T17:44:19.110Z,4.30
2022-11-17T17:46:49.501Z,4.60
2022-11-17T17:49:19.553Z,4.90
2022-11-17T17:51:48.391Z,4.60
2022-11-17T17:54:24.225Z,5.50
2022-11-17T17:56:53.055Z,4.40
2022-11-17T17:59:21.502Z,4.70
2022-11-17T18:01:50.308Z,4.40
2022-11-17T18:04:19.070Z,4.70
2022-11-17T18:06:48.702Z,5.60
2022-11-17T18:09:20.663Z,4.50
2022-11-17T18:11:51.129Z,4.80
2022-11-17T18:14:24.853Z,5.90
2022-11-17T18:16:54.296Z,5.80
2022-11-17T18:19:26.892Z,6.40
2022-11-17T18:21:56.975Z,5.30
2022-11-17T18:24:25.720Z,6.00
2022-11-17T18:26:54.433Z,4.90
2022-11-17T18:29:22.983Z,9.10
2022-11-17T18:31:51.503Z,5.50
2022-11-17T18:34:26.741Z,5.40
2022-11-17T18:36:56.327Z,5.80
2022-11-17T18:39:25.234Z,4.70
2022-11-17T18:41:53.879Z,5.50
2022-11-17T18:44:22.604Z,4.80
2022-11-17T18:46:51.394Z,5.70
2022-11-17T18:49:20.132Z,6.20
2022-11-17T18:51:49.917Z,6.30
2022-11-17T18:54:18.394Z,7.30
2022-11-17T18:56:46.946Z,5.20
2022-11-17T18:59:15.662Z,6.10
2022-11-17T19:01:45.010Z,6.70
2022-11-17T19:04:15.068Z,6.80
2022-11-17T19:06:43.625Z,6.40
2022-11-17T19:09:12.537Z,6.70
2022-11-17T19:11:40.999Z,6.20
2022-11-17T19:14:09.465Z,6.90
2022-11-17T19:16:44.572Z,7.60
2022-11-17T19:19:14.555Z,7.00
2022-11-17T19:21:44.564Z,6.90
2022-11-17T19:24:14.242Z,6.60
2022-11-17T19:29:17.276Z,6.00
2022-11-17T19:31:47.109Z,6.80
2022-11-17T19:34:16.050Z,10.30
2022-11-17T19:36:45.424Z,6.70
2022-11-17T19:39:14.891Z,8.80
2022-11-17T19:44:14.201Z,8.10
2022-11-17T19:46:43.527Z,8.70
2022-11-17T19:49:12.759Z,7.40
2022-11-17T19:51:42.146Z,8.60
2022-11-17T19:54:13.723Z,8.10
2022-11-17T19:56:42.317Z,6.30
2022-11-17T19:59:15.654Z,8.90
2022-11-17T20:01:46.362Z,8.00
2022-11-17T20:04:15.056Z,9.20
2022-11-17T20:06:43.746Z,8.70
2022-11-17T20:09:15.037Z,7.20
2022-11-17T20:11:44.085Z,8.30
2022-11-17T20:14:12.705Z,7.20
2022-11-17T20:16:41.350Z,8.80
2022-11-17T20:19:10.044Z,8.40
2022-11-17T20:21:38.720Z,8.50
2022-11-17T20:24:07.793Z,9.30
2022-11-17T20:26:40.706Z,8.90
2022-11-17T20:29:09.442Z,8.60
2022-11-17T20:31:38.070Z,8.30
2022-11-17T20:34:06.861Z,9.80
2022-11-17T20:36:35.696Z,11.00
2022-11-17T20:39:07.897Z,9.10
2022-11-17T20:41:36.599Z,8.10
2022-11-17T20:44:05.542Z,9.70
2022-11-17T20:46:34.115Z,10.30
2022-11-17T20:49:02.585Z,9.70
2022-11-17T20:51:31.135Z,9.90
2022-11-17T20:53:59.621Z,9.10
2022-11-17T20:56:28.405Z,9.80
2022-11-17T20:58:56.984Z,9.60
2022-11-17T21:01:25.931Z,9.50
2022-11-17T21:03:54.485Z,10.90
2022-11-17T21:06:23.594Z,10.00
2022-11-17T21:08:52.551Z,9.60
2022-11-17T21:11:43.003Z,11.10
2022-11-17T21:14:13.226Z,10.70
2022-11-17T21:16:46.873Z,10.30
2022-11-17T21:19:16.732Z,10.90
2022-11-17T21:21:46.009Z,10.40
2022-11-17T21:24:14.698Z,11.10
2022-11-17T21:26:43.586Z,11.60
2022-11-17T21:29:12.057Z,11.30
2022-11-17T21:31:40.654Z,12.00
2022-11-17T21:34:17.023Z,11.20
2022-11-17T21:36:45.494Z,11.70
2022-11-17T21:39:18.664Z,10.70
2022-11-17T21:41:47.352Z,9.60
2022-11-17T21:44:16.034Z,10.40
2022-11-17T21:46:44.716Z,12.00
2022-11-17T21:49:13.273Z,8.80
2022-11-17T21:51:42.088Z,10.50
2022-11-17T21:54:10.672Z,11.50
2022-11-17T21:56:40.468Z,9.70
2022-11-17T22:01:41.513Z,9.50
2022-11-17T22:04:12.756Z,10.40
2022-11-17T22:06:41.471Z,10.30
2022-11-17T22:09:09.975Z,9.50
2022-11-17T22:11:39.006Z,9.60
2022-11-17T22:14:16.906Z,10.40
2022-11-17T22:16:46.894Z,10.70
2022-11-17T22:19:17.340Z,9.70
2022-11-17T22:21:49.563Z,10.40
2022-11-17T22:24:19.581Z,10.90
2022-11-17T22:26:49.220Z,10.50
2022-11-17T22:29:21.350Z,10.50
2022-11-17T22:31:51.173Z,10.20
2022-11-17T22:34:19.781Z,10.30
2022-11-17T22:36:48.534Z,10.30
2022-11-17T22:39:17.337Z,11.90
2022-11-17T22:41:46.060Z,11.30
2022-11-17T22:44:16.226Z,11.90
2022-11-17T22:46:45.951Z,12.20
2022-11-17T22:49:14.903Z,13.30
2022-11-17T22:52:02.427Z,13.10
2022-11-17T22:54:31.872Z,13.10
2022-11-17T22:57:00.545Z,12.80
2022-11-17T22:59:30.332Z,12.90
2022-11-17T23:04:27.579Z,12.90
2022-11-17T23:06:56.470Z,13.60
2022-11-17T23:09:25.307Z,14.70
2022-11-17T23:11:54.093Z,15.60
2022-11-17T23:14:22.880Z,14.40
2022-11-17T23:16:51.942Z,15.10
2022-11-17T23:19:21.037Z,14.90
2022-11-17T23:21:50.063Z,15.30
2022-11-17T23:24:18.851Z,12.40
2022-11-17T23:26:47.638Z,14.90
2022-11-17T23:29:16.406Z,15.20
2022-11-17T23:31:45.334Z,14.80
2022-11-17T23:34:14.411Z,12.60
2022-11-17T23:36:43.303Z,13.50
2022-11-17T23:39:11.886Z,13.30
2022-11-17T23:41:40.674Z,14.50
2022-11-17T23:44:09.461Z,14.60
2022-11-17T23:46:39.193Z,13.40
2022-11-17T23:51:36.789Z,11.90
2022-11-17T23:54:05.675Z,12.00
2022-11-17T23:56:35.136Z,12.80
2022-11-17T23:59:04.646Z,12.80
